Terminal Aerodrome Forecast
Issued by NWS

Home | Current Version | Previous Version | Text Only | Print | Product List | Glossary On
Versions: 1 2 3 4 5 6 7 8 9 10 11 12 13 14 15 16 17 18 19 20 21 22
622
FTUS43 KGRR 251740
TAFLAN
TAF
KLAN 251740Z 2518/2618 13008KT P6SM SCT040 SCT080
     FM260500 17010G20KT P6SM -SHRA OVC035
     FM260900 22009KT P6SM -SHRA SCT007 OVC015
     FM261200 25009KT P6SM OVC025=

USA.gov is the U.S. government's official web portal to all federal, state and local government web resources and services.